sensor_id;sensor_type;location;lat;lon;timestamp;P1;durP1;ratioP1;P2;durP2;ratioP2
44214;SDS011;29884;47.450;19.124;2022-10-16T00:01:36;7.35;;;3.35;;
44214;SDS011;29884;47.450;19.124;2022-10-16T00:04:02;8.18;;;3.25;;
44214;SDS011;29884;47.450;19.124;2022-10-16T00:06:28;5.57;;;3.60;;
44214;SDS011;29884;47.450;19.124;2022-10-16T00:08:56;7.15;;;3.00;;
44214;SDS011;29884;47.450;19.124;2022-10-16T00:11:23;10.30;;;3.30;;
44214;SDS011;29884;47.450;19.124;2022-10-16T00:13:56;13.00;;;3.22;;
44214;SDS011;29884;47.450;19.124;2022-10-16T00:16:23;5.38;;;3.20;;
44214;SDS011;29884;47.450;19.124;2022-10-16T00:18:49;5.63;;;3.30;;
44214;SDS011;29884;47.450;19.124;2022-10-16T00:21:24;5.93;;;3.33;;
44214;SDS011;29884;47.450;19.124;2022-10-16T00:23:53;5.40;;;2.85;;
44214;SDS011;29884;47.450;19.124;2022-10-16T00:26:21;5.20;;;2.78;;
44214;SDS011;29884;47.450;19.124;2022-10-16T00:28:47;7.15;;;2.95;;
44214;SDS011;29884;47.450;19.124;2022-10-16T00:31:14;4.93;;;2.65;;
44214;SDS011;29884;47.450;19.124;2022-10-16T00:33:41;5.75;;;2.30;;
44214;SDS011;29884;47.450;19.124;2022-10-16T00:36:08;6.18;;;3.00;;
44214;SDS011;29884;47.450;19.124;2022-10-16T00:38:37;8.05;;;3.05;;
44214;SDS011;29884;47.450;19.124;2022-10-16T00:41:03;4.00;;;2.35;;
44214;SDS011;29884;47.450;19.124;2022-10-16T00:46:07;5.95;;;2.80;;
44214;SDS011;29884;47.450;19.124;2022-10-16T00:48:48;5.72;;;3.22;;
44214;SDS011;29884;47.450;19.124;2022-10-16T00:51:23;5.35;;;2.63;;
44214;SDS011;29884;47.450;19.124;2022-10-16T00:53:54;6.68;;;2.72;;
44214;SDS011;29884;47.450;19.124;2022-10-16T00:56:21;5.68;;;2.72;;
44214;SDS011;29884;47.450;19.124;2022-10-16T00:58:47;9.50;;;3.03;;
44214;SDS011;29884;47.450;19.124;2022-10-16T01:01:12;5.65;;;2.80;;
44214;SDS011;29884;47.450;19.124;2022-10-16T01:03:38;5.85;;;2.72;;
44214;SDS011;29884;47.450;19.124;2022-10-16T01:06:07;4.78;;;2.55;;
44214;SDS011;29884;47.450;19.124;2022-10-16T01:08:39;5.63;;;2.80;;
44214;SDS011;29884;47.450;19.124;2022-10-16T01:11:20;3.53;;;2.42;;
44214;SDS011;29884;47.450;19.124;2022-10-16T01:13:58;7.03;;;3.15;;
44214;SDS011;29884;47.450;19.124;2022-10-16T01:19:12;5.82;;;2.50;;
44214;SDS011;29884;47.450;19.124;2022-10-16T01:21:51;3.63;;;2.70;;
44214;SDS011;29884;47.450;19.124;2022-10-16T01:32:14;4.88;;;2.53;;
44214;SDS011;29884;47.450;19.124;2022-10-16T01:40:02;3.83;;;2.65;;
44214;SDS011;29884;47.450;19.124;2022-10-16T01:42:34;8.93;;;2.83;;
44214;SDS011;29884;47.450;19.124;2022-10-16T01:45:03;5.10;;;2.50;;
44214;SDS011;29884;47.450;19.124;2022-10-16T01:47:32;3.88;;;2.88;;
44214;SDS011;29884;47.450;19.124;2022-10-16T01:50:01;3.78;;;2.70;;
44214;SDS011;29884;47.450;19.124;2022-10-16T01:52:29;6.15;;;3.03;;
44214;SDS011;29884;47.450;19.124;2022-10-16T01:54:59;5.15;;;3.05;;
44214;SDS011;29884;47.450;19.124;2022-10-16T01:57:28;4.50;;;3.05;;
44214;SDS011;29884;47.450;19.124;2022-10-16T01:59:58;4.20;;;3.17;;
44214;SDS011;29884;47.450;19.124;2022-10-16T02:02:28;4.20;;;2.75;;
44214;SDS011;29884;47.450;19.124;2022-10-16T02:05:04;7.03;;;3.45;;
44214;SDS011;29884;47.450;19.124;2022-10-16T02:07:55;5.53;;;2.90;;
44214;SDS011;29884;47.450;19.124;2022-10-16T02:10:21;5.55;;;2.88;;
44214;SDS011;29884;47.450;19.124;2022-10-16T02:15:47;4.28;;;2.85;;
44214;SDS011;29884;47.450;19.124;2022-10-16T02:18:13;6.32;;;3.00;;
44214;SDS011;29884;47.450;19.124;2022-10-16T02:20:50;7.20;;;2.80;;
44214;SDS011;29884;47.450;19.124;2022-10-16T02:23:45;3.78;;;3.13;;
44214;SDS011;29884;47.450;19.124;2022-10-16T02:26:36;4.85;;;2.97;;
44214;SDS011;29884;47.450;19.124;2022-10-16T02:29:14;4.20;;;3.13;;
44214;SDS011;29884;47.450;19.124;2022-10-16T02:31:43;4.60;;;3.20;;
44214;SDS011;29884;47.450;19.124;2022-10-16T02:34:14;15.75;;;4.75;;
44214;SDS011;29884;47.450;19.124;2022-10-16T02:36:41;13.25;;;4.32;;
44214;SDS011;29884;47.450;19.124;2022-10-16T02:39:08;11.65;;;4.32;;
44214;SDS011;29884;47.450;19.124;2022-10-16T02:41:34;12.60;;;4.50;;
44214;SDS011;29884;47.450;19.124;2022-10-16T02:44:00;14.30;;;4.75;;
44214;SDS011;29884;47.450;19.124;2022-10-16T02:46:26;18.48;;;5.00;;
44214;SDS011;29884;47.450;19.124;2022-10-16T02:48:52;15.05;;;5.03;;
44214;SDS011;29884;47.450;19.124;2022-10-16T02:51:17;10.57;;;5.55;;
44214;SDS011;29884;47.450;19.124;2022-10-16T02:53:43;7.47;;;4.35;;
44214;SDS011;29884;47.450;19.124;2022-10-16T02:56:09;7.38;;;4.22;;
44214;SDS011;29884;47.450;19.124;2022-10-16T02:58:35;5.22;;;4.18;;
44214;SDS011;29884;47.450;19.124;2022-10-16T03:01:01;5.95;;;3.78;;
44214;SDS011;29884;47.450;19.124;2022-10-16T03:03:26;7.28;;;3.60;;
44214;SDS011;29884;47.450;19.124;2022-10-16T03:05:52;5.22;;;4.03;;
44214;SDS011;29884;47.450;19.124;2022-10-16T03:08:18;6.65;;;3.83;;
44214;SDS011;29884;47.450;19.124;2022-10-16T03:10:48;6.45;;;3.63;;
44214;SDS011;29884;47.450;19.124;2022-10-16T03:13:15;4.95;;;3.35;;
44214;SDS011;29884;47.450;19.124;2022-10-16T03:15:40;6.15;;;3.53;;
44214;SDS011;29884;47.450;19.124;2022-10-16T03:18:06;5.57;;;3.83;;
44214;SDS011;29884;47.450;19.124;2022-10-16T03:20:32;4.90;;;4.00;;
44214;SDS011;29884;47.450;19.124;2022-10-16T03:22:58;7.78;;;3.80;;
44214;SDS011;29884;47.450;19.124;2022-10-16T03:25:24;5.68;;;3.65;;
44214;SDS011;29884;47.450;19.124;2022-10-16T03:27:50;5.22;;;3.95;;
44214;SDS011;29884;47.450;19.124;2022-10-16T03:30:15;6.20;;;3.83;;
44214;SDS011;29884;47.450;19.124;2022-10-16T03:32:41;7.03;;;3.78;;
44214;SDS011;29884;47.450;19.124;2022-10-16T03:35:08;6.28;;;4.20;;
44214;SDS011;29884;47.450;19.124;2022-10-16T03:37:34;6.32;;;3.80;;
44214;SDS011;29884;47.450;19.124;2022-10-16T03:40:01;5.05;;;4.03;;
44214;SDS011;29884;47.450;19.124;2022-10-16T03:42:28;8.90;;;3.92;;
44214;SDS011;29884;47.450;19.124;2022-10-16T03:44:53;5.05;;;3.45;;
44214;SDS011;29884;47.450;19.124;2022-10-16T03:47:19;7.35;;;3.83;;
44214;SDS011;29884;47.450;19.124;2022-10-16T03:49:47;5.25;;;3.88;;
44214;SDS011;29884;47.450;19.124;2022-10-16T03:52:13;5.40;;;3.50;;
44214;SDS011;29884;47.450;19.124;2022-10-16T03:54:39;8.00;;;3.95;;
44214;SDS011;29884;47.450;19.124;2022-10-16T03:57:04;6.00;;;3.75;;
44214;SDS011;29884;47.450;19.124;2022-10-16T03:59:30;7.32;;;4.10;;
44214;SDS011;29884;47.450;19.124;2022-10-16T04:01:56;7.55;;;3.90;;
44214;SDS011;29884;47.450;19.124;2022-10-16T04:04:21;5.82;;;4.20;;
44214;SDS011;29884;47.450;19.124;2022-10-16T04:06:47;5.13;;;4.22;;
44214;SDS011;29884;47.450;19.124;2022-10-16T04:09:13;6.15;;;4.28;;
44214;SDS011;29884;47.450;19.124;2022-10-16T04:11:39;5.82;;;4.13;;
44214;SDS011;29884;47.450;19.124;2022-10-16T04:14:04;7.00;;;4.32;;
44214;SDS011;29884;47.450;19.124;2022-10-16T04:16:30;7.95;;;4.50;;
44214;SDS011;29884;47.450;19.124;2022-10-16T04:18:56;4.78;;;3.88;;
44214;SDS011;29884;47.450;19.124;2022-10-16T04:21:21;5.72;;;4.18;;
44214;SDS011;29884;47.450;19.124;2022-10-16T04:23:47;6.75;;;4.43;;
44214;SDS011;29884;47.450;19.124;2022-10-16T04:26:14;6.57;;;4.28;;
44214;SDS011;29884;47.450;19.124;2022-10-16T04:28:39;8.48;;;4.90;;
44214;SDS011;29884;47.450;19.124;2022-10-16T04:31:06;6.80;;;4.65;;
44214;SDS011;29884;47.450;19.124;2022-10-16T04:33:32;7.15;;;4.50;;
44214;SDS011;29884;47.450;19.124;2022-10-16T04:35:59;7.95;;;4.57;;
44214;SDS011;29884;47.450;19.124;2022-10-16T04:38:25;7.38;;;4.50;;
44214;SDS011;29884;47.450;19.124;2022-10-16T04:40:51;6.30;;;4.40;;
44214;SDS011;29884;47.450;19.124;2022-10-16T04:43:18;7.55;;;4.68;;
44214;SDS011;29884;47.450;19.124;2022-10-16T04:45:44;6.40;;;4.43;;
44214;SDS011;29884;47.450;19.124;2022-10-16T04:48:09;7.63;;;4.78;;
44214;SDS011;29884;47.450;19.124;2022-10-16T04:50:35;5.63;;;4.22;;
44214;SDS011;29884;47.450;19.124;2022-10-16T04:53:01;8.65;;;5.70;;
44214;SDS011;29884;47.450;19.124;2022-10-16T04:55:27;9.13;;;6.18;;
44214;SDS011;29884;47.450;19.124;2022-10-16T04:57:52;9.75;;;5.88;;
44214;SDS011;29884;47.450;19.124;2022-10-16T05:00:18;9.70;;;5.65;;
44214;SDS011;29884;47.450;19.124;2022-10-16T05:02:44;12.20;;;7.82;;
44214;SDS011;29884;47.450;19.124;2022-10-16T05:05:10;27.58;;;15.73;;
44214;SDS011;29884;47.450;19.124;2022-10-16T05:07:36;17.33;;;9.77;;
44214;SDS011;29884;47.450;19.124;2022-10-16T05:10:02;16.70;;;9.98;;
44214;SDS011;29884;47.450;19.124;2022-10-16T05:12:29;22.60;;;13.02;;
44214;SDS011;29884;47.450;19.124;2022-10-16T05:14:54;25.20;;;13.73;;
44214;SDS011;29884;47.450;19.124;2022-10-16T05:17:23;13.15;;;8.50;;
44214;SDS011;29884;47.450;19.124;2022-10-16T05:19:50;10.60;;;6.90;;
44214;SDS011;29884;47.450;19.124;2022-10-16T05:22:15;11.40;;;6.72;;
44214;SDS011;29884;47.450;19.124;2022-10-16T05:24:41;9.40;;;5.68;;
44214;SDS011;29884;47.450;19.124;2022-10-16T05:27:07;8.57;;;6.30;;
44214;SDS011;29884;47.450;19.124;2022-10-16T05:29:32;9.05;;;5.90;;
44214;SDS011;29884;47.450;19.124;2022-10-16T05:31:58;10.80;;;5.75;;
44214;SDS011;29884;47.450;19.124;2022-10-16T05:34:24;9.55;;;5.82;;
44214;SDS011;29884;47.450;19.124;2022-10-16T05:36:50;10.85;;;5.63;;
44214;SDS011;29884;47.450;19.124;2022-10-16T05:39:15;8.85;;;5.22;;
44214;SDS011;29884;47.450;19.124;2022-10-16T05:41:42;7.85;;;5.65;;
44214;SDS011;29884;47.450;19.124;2022-10-16T05:44:08;9.13;;;5.90;;
44214;SDS011;29884;47.450;19.124;2022-10-16T05:46:33;9.07;;;5.57;;
44214;SDS011;29884;47.450;19.124;2022-10-16T05:48:59;11.07;;;5.30;;
44214;SDS011;29884;47.450;19.124;2022-10-16T05:51:25;9.63;;;5.18;;
44214;SDS011;29884;47.450;19.124;2022-10-16T05:53:51;8.32;;;5.22;;
44214;SDS011;29884;47.450;19.124;2022-10-16T05:56:17;8.10;;;5.60;;
44214;SDS011;29884;47.450;19.124;2022-10-16T05:58:43;9.75;;;5.20;;
44214;SDS011;29884;47.450;19.124;2022-10-16T06:01:13;7.32;;;4.80;;
44214;SDS011;29884;47.450;19.124;2022-10-16T06:03:40;6.70;;;4.78;;
44214;SDS011;29884;47.450;19.124;2022-10-16T06:06:13;8.32;;;4.28;;
44214;SDS011;29884;47.450;19.124;2022-10-16T06:08:41;8.05;;;4.28;;
44214;SDS011;29884;47.450;19.124;2022-10-16T06:11:09;8.25;;;5.03;;
44214;SDS011;29884;47.450;19.124;2022-10-16T06:13:37;4.82;;;3.92;;
44214;SDS011;29884;47.450;19.124;2022-10-16T06:16:04;7.07;;;4.70;;
44214;SDS011;29884;47.450;19.124;2022-10-16T06:18:30;4.93;;;3.88;;
44214;SDS011;29884;47.450;19.124;2022-10-16T06:20:56;7.35;;;4.38;;
44214;SDS011;29884;47.450;19.124;2022-10-16T06:23:23;8.38;;;4.93;;
44214;SDS011;29884;47.450;19.124;2022-10-16T06:25:49;8.02;;;4.28;;
44214;SDS011;29884;47.450;19.124;2022-10-16T06:28:15;6.63;;;4.50;;
44214;SDS011;29884;47.450;19.124;2022-10-16T06:30:41;6.00;;;4.35;;
44214;SDS011;29884;47.450;19.124;2022-10-16T06:33:09;8.63;;;4.43;;
44214;SDS011;29884;47.450;19.124;2022-10-16T06:35:35;7.70;;;4.22;;
44214;SDS011;29884;47.450;19.124;2022-10-16T06:38:01;7.55;;;4.22;;
44214;SDS011;29884;47.450;19.124;2022-10-16T06:40:27;6.88;;;4.20;;
44214;SDS011;29884;47.450;19.124;2022-10-16T06:42:54;9.55;;;4.30;;
44214;SDS011;29884;47.450;19.124;2022-10-16T06:45:20;7.05;;;3.78;;
44214;SDS011;29884;47.450;19.124;2022-10-16T06:47:46;11.00;;;4.32;;
44214;SDS011;29884;47.450;19.124;2022-10-16T06:50:11;8.20;;;4.53;;
44214;SDS011;29884;47.450;19.124;2022-10-16T06:52:37;7.75;;;3.70;;
44214;SDS011;29884;47.450;19.124;2022-10-16T06:55:03;9.63;;;3.83;;
44214;SDS011;29884;47.450;19.124;2022-10-16T06:57:29;7.13;;;4.30;;
44214;SDS011;29884;47.450;19.124;2022-10-16T06:59:54;6.53;;;4.30;;
44214;SDS011;29884;47.450;19.124;2022-10-16T07:02:20;5.60;;;3.75;;
44214;SDS011;29884;47.450;19.124;2022-10-16T07:04:45;7.60;;;3.80;;
44214;SDS011;29884;47.450;19.124;2022-10-16T07:07:12;5.15;;;3.75;;
44214;SDS011;29884;47.450;19.124;2022-10-16T07:09:37;6.55;;;4.18;;
44214;SDS011;29884;47.450;19.124;2022-10-16T07:12:03;6.22;;;4.30;;
44214;SDS011;29884;47.450;19.124;2022-10-16T07:14:29;5.80;;;4.35;;
44214;SDS011;29884;47.450;19.124;2022-10-16T07:16:55;5.45;;;3.88;;
44214;SDS011;29884;47.450;19.124;2022-10-16T07:19:21;5.88;;;4.45;;
44214;SDS011;29884;47.450;19.124;2022-10-16T07:21:46;7.60;;;4.05;;
44214;SDS011;29884;47.450;19.124;2022-10-16T07:24:13;5.22;;;3.92;;
44214;SDS011;29884;47.450;19.124;2022-10-16T07:26:40;10.20;;;4.22;;
44214;SDS011;29884;47.450;19.124;2022-10-16T07:29:15;7.38;;;4.15;;
44214;SDS011;29884;47.450;19.124;2022-10-16T07:31:42;8.63;;;4.28;;
44214;SDS011;29884;47.450;19.124;2022-10-16T07:34:09;13.68;;;4.28;;
44214;SDS011;29884;47.450;19.124;2022-10-16T07:36:36;7.07;;;4.45;;
44214;SDS011;29884;47.450;19.124;2022-10-16T07:39:02;7.47;;;3.95;;
44214;SDS011;29884;47.450;19.124;2022-10-16T07:41:28;6.68;;;4.20;;
44214;SDS011;29884;47.450;19.124;2022-10-16T07:43:55;8.23;;;4.20;;
44214;SDS011;29884;47.450;19.124;2022-10-16T07:46:22;4.90;;;4.18;;
44214;SDS011;29884;47.450;19.124;2022-10-16T07:48:48;7.80;;;3.63;;
44214;SDS011;29884;47.450;19.124;2022-10-16T07:51:14;9.45;;;4.43;;
44214;SDS011;29884;47.450;19.124;2022-10-16T07:53:41;4.30;;;3.65;;
44214;SDS011;29884;47.450;19.124;2022-10-16T07:56:07;5.93;;;4.32;;
44214;SDS011;29884;47.450;19.124;2022-10-16T07:58:33;8.63;;;4.30;;
44214;SDS011;29884;47.450;19.124;2022-10-16T08:01:12;5.55;;;3.80;;
44214;SDS011;29884;47.450;19.124;2022-10-16T08:03:41;6.10;;;4.03;;
44214;SDS011;29884;47.450;19.124;2022-10-16T08:06:11;6.90;;;4.03;;
44214;SDS011;29884;47.450;19.124;2022-10-16T08:08:36;7.40;;;4.72;;
44214;SDS011;29884;47.450;19.124;2022-10-16T08:11:02;6.82;;;4.20;;
44214;SDS011;29884;47.450;19.124;2022-10-16T08:13:29;6.75;;;4.20;;
44214;SDS011;29884;47.450;19.124;2022-10-16T08:15:55;5.10;;;3.83;;
44214;SDS011;29884;47.450;19.124;2022-10-16T08:18:21;7.18;;;3.78;;
44214;SDS011;29884;47.450;19.124;2022-10-16T08:20:47;6.32;;;4.10;;
44214;SDS011;29884;47.450;19.124;2022-10-16T08:23:13;9.35;;;4.50;;
44214;SDS011;29884;47.450;19.124;2022-10-16T08:25:40;7.32;;;4.57;;
44214;SDS011;29884;47.450;19.124;2022-10-16T08:28:06;8.02;;;4.20;;
44214;SDS011;29884;47.450;19.124;2022-10-16T08:30:34;7.15;;;4.13;;
44214;SDS011;29884;47.450;19.124;2022-10-16T08:33:00;7.40;;;4.18;;
44214;SDS011;29884;47.450;19.124;2022-10-16T08:35:26;6.10;;;3.80;;
44214;SDS011;29884;47.450;19.124;2022-10-16T08:37:52;6.95;;;3.90;;
44214;SDS011;29884;47.450;19.124;2022-10-16T08:40:22;5.65;;;4.03;;
44214;SDS011;29884;47.450;19.124;2022-10-16T08:48:18;8.80;;;4.32;;
44214;SDS011;29884;47.450;19.124;2022-10-16T08:50:51;9.43;;;4.30;;
44214;SDS011;29884;47.450;19.124;2022-10-16T08:53:20;9.00;;;4.10;;
44214;SDS011;29884;47.450;19.124;2022-10-16T08:55:55;6.05;;;4.10;;
44214;SDS011;29884;47.450;19.124;2022-10-16T08:58:22;8.52;;;4.47;;
44214;SDS011;29884;47.450;19.124;2022-10-16T09:00:56;6.20;;;4.15;;
44214;SDS011;29884;47.450;19.124;2022-10-16T09:14:57;5.50;;;3.92;;
44214;SDS011;29884;47.450;19.124;2022-10-16T09:22:45;10.57;;;4.40;;
44214;SDS011;29884;47.450;19.124;2022-10-16T09:25:12;6.18;;;4.05;;
44214;SDS011;29884;47.450;19.124;2022-10-16T09:27:44;5.57;;;4.03;;
44214;SDS011;29884;47.450;19.124;2022-10-16T09:30:16;5.85;;;4.15;;
44214;SDS011;29884;47.450;19.124;2022-10-16T09:32:43;5.72;;;4.53;;
44214;SDS011;29884;47.450;19.124;2022-10-16T09:35:15;6.65;;;4.10;;
44214;SDS011;29884;47.450;19.124;2022-10-16T09:37:47;7.50;;;4.28;;
44214;SDS011;29884;47.450;19.124;2022-10-16T09:40:25;10.70;;;4.25;;
44214;SDS011;29884;47.450;19.124;2022-10-16T09:43:11;6.25;;;4.05;;
44214;SDS011;29884;47.450;19.124;2022-10-16T09:45:38;9.07;;;4.10;;
44214;SDS011;29884;47.450;19.124;2022-10-16T09:48:11;6.50;;;4.18;;
44214;SDS011;29884;47.450;19.124;2022-10-16T09:53:13;5.50;;;4.07;;
44214;SDS011;29884;47.450;19.124;2022-10-16T09:55:52;6.93;;;3.58;;
44214;SDS011;29884;47.450;19.124;2022-10-16T09:58:21;6.70;;;3.58;;
44214;SDS011;29884;47.450;19.124;2022-10-16T10:00:52;7.32;;;3.83;;
44214;SDS011;29884;47.450;19.124;2022-10-16T10:03:30;7.53;;;3.65;;
44214;SDS011;29884;47.450;19.124;2022-10-16T10:06:16;5.50;;;3.58;;
44214;SDS011;29884;47.450;19.124;2022-10-16T10:08:53;4.90;;;3.28;;
44214;SDS011;29884;47.450;19.124;2022-10-16T10:14:38;5.78;;;3.53;;
44214;SDS011;29884;47.450;19.124;2022-10-16T10:20:28;3.92;;;2.92;;
44214;SDS011;29884;47.450;19.124;2022-10-16T10:22:45;10.60;;;3.65;;
44214;SDS011;29884;47.450;19.124;2022-10-16T10:28:29;5.47;;;3.28;;
44214;SDS011;29884;47.450;19.124;2022-10-16T10:31:20;4.45;;;2.75;;
44214;SDS011;29884;47.450;19.124;2022-10-16T10:40:22;7.60;;;2.38;;
44214;SDS011;29884;47.450;19.124;2022-10-16T10:55:15;9.23;;;2.70;;
44214;SDS011;29884;47.450;19.124;2022-10-16T11:06:12;4.18;;;2.20;;
44214;SDS011;29884;47.450;19.124;2022-10-16T11:14:06;5.20;;;2.28;;
44214;SDS011;29884;47.450;19.124;2022-10-16T11:16:58;3.78;;;1.95;;
44214;SDS011;29884;47.450;19.124;2022-10-16T11:22:07;4.50;;;2.33;;
44214;SDS011;29884;47.450;19.124;2022-10-16T11:27:12;5.15;;;1.80;;
44214;SDS011;29884;47.450;19.124;2022-10-16T11:29:50;4.00;;;2.08;;
44214;SDS011;29884;47.450;19.124;2022-10-16T11:32:23;3.72;;;1.67;;
44214;SDS011;29884;47.450;19.124;2022-10-16T11:34:56;4.60;;;1.60;;
44214;SDS011;29884;47.450;19.124;2022-10-16T11:37:36;3.42;;;2.10;;
44214;SDS011;29884;47.450;19.124;2022-10-16T11:40:16;4.85;;;2.00;;
44214;SDS011;29884;47.450;19.124;2022-10-16T11:42:54;2.95;;;2.22;;
44214;SDS011;29884;47.450;19.124;2022-10-16T11:45:30;4.57;;;1.80;;
44214;SDS011;29884;47.450;19.124;2022-10-16T11:48:12;6.07;;;2.00;;
44214;SDS011;29884;47.450;19.124;2022-10-16T11:53:18;9.35;;;2.05;;
44214;SDS011;29884;47.450;19.124;2022-10-16T11:55:47;4.13;;;1.63;;
44214;SDS011;29884;47.450;19.124;2022-10-16T11:58:16;5.03;;;1.75;;
44214;SDS011;29884;47.450;19.124;2022-10-16T12:03:35;3.25;;;1.70;;
44214;SDS011;29884;47.450;19.124;2022-10-16T12:06:19;3.38;;;1.98;;
44214;SDS011;29884;47.450;19.124;2022-10-16T12:09:09;3.30;;;1.77;;
44214;SDS011;29884;47.450;19.124;2022-10-16T12:11:46;6.60;;;1.95;;
44214;SDS011;29884;47.450;19.124;2022-10-16T12:16:38;2.88;;;1.80;;
44214;SDS011;29884;47.450;19.124;2022-10-16T12:19:17;3.83;;;2.03;;
44214;SDS011;29884;47.450;19.124;2022-10-16T12:21:44;2.92;;;1.52;;
44214;SDS011;29884;47.450;19.124;2022-10-16T12:24:52;4.07;;;1.40;;
44214;SDS011;29884;47.450;19.124;2022-10-16T12:27:02;3.72;;;2.05;;
44214;SDS011;29884;47.450;19.124;2022-10-16T12:29:33;4.35;;;1.52;;
44214;SDS011;29884;47.450;19.124;2022-10-16T12:32:02;4.00;;;1.67;;
44214;SDS011;29884;47.450;19.124;2022-10-16T12:34:47;2.20;;;1.60;;
44214;SDS011;29884;47.450;19.124;2022-10-16T12:37:25;3.40;;;1.52;;
44214;SDS011;29884;47.450;19.124;2022-10-16T12:39:54;3.22;;;1.60;;
44214;SDS011;29884;47.450;19.124;2022-10-16T12:47:34;2.85;;;1.67;;
44214;SDS011;29884;47.450;19.124;2022-10-16T12:50:02;2.15;;;1.30;;
44214;SDS011;29884;47.450;19.124;2022-10-16T12:52:37;5.00;;;1.65;;
44214;SDS011;29884;47.450;19.124;2022-10-16T12:55:04;2.20;;;1.50;;
44214;SDS011;29884;47.450;19.124;2022-10-16T12:57:56;4.65;;;1.50;;
44214;SDS011;29884;47.450;19.124;2022-10-16T13:00:44;6.50;;;1.50;;
44214;SDS011;29884;47.450;19.124;2022-10-16T13:14:07;2.35;;;1.20;;
44214;SDS011;29884;47.450;19.124;2022-10-16T13:19:38;3.25;;;1.35;;
44214;SDS011;29884;47.450;19.124;2022-10-16T13:25:04;3.05;;;1.20;;
44214;SDS011;29884;47.450;19.124;2022-10-16T13:32:48;3.95;;;1.50;;
44214;SDS011;29884;47.450;19.124;2022-10-16T13:35:21;3.78;;;1.30;;
44214;SDS011;29884;47.450;19.124;2022-10-16T13:38:02;6.10;;;1.40;;
44214;SDS011;29884;47.450;19.124;2022-10-16T13:40:30;2.58;;;1.48;;
44214;SDS011;29884;47.450;19.124;2022-10-16T13:42:59;2.65;;;1.40;;
44214;SDS011;29884;47.450;19.124;2022-10-16T13:45:25;4.03;;;1.50;;
44214;SDS011;29884;47.450;19.124;2022-10-16T13:48:01;4.07;;;1.40;;
44214;SDS011;29884;47.450;19.124;2022-10-16T13:50:31;2.88;;;1.40;;
44214;SDS011;29884;47.450;19.124;2022-10-16T13:55:52;2.20;;;1.10;;
44214;SDS011;29884;47.450;19.124;2022-10-16T13:58:18;3.90;;;1.20;;
44214;SDS011;29884;47.450;19.124;2022-10-16T14:01:45;1.83;;;1.20;;
44214;SDS011;29884;47.450;19.124;2022-10-16T14:03:40;3.85;;;1.35;;
44214;SDS011;29884;47.450;19.124;2022-10-16T14:06:11;2.10;;;1.10;;
44214;SDS011;29884;47.450;19.124;2022-10-16T14:08:42;5.60;;;1.25;;
44214;SDS011;29884;47.450;19.124;2022-10-16T14:11:10;3.60;;;1.42;;
44214;SDS011;29884;47.450;19.124;2022-10-16T14:13:38;2.25;;;1.30;;
44214;SDS011;29884;47.450;19.124;2022-10-16T14:16:09;2.38;;;1.10;;
44214;SDS011;29884;47.450;19.124;2022-10-16T14:18:41;3.43;;;1.27;;
44214;SDS011;29884;47.450;19.124;2022-10-16T14:21:12;6.00;;;1.52;;
44214;SDS011;29884;47.450;19.124;2022-10-16T14:23:40;3.05;;;1.40;;
44214;SDS011;29884;47.450;19.124;2022-10-16T14:28:35;2.70;;;1.30;;
44214;SDS011;29884;47.450;19.124;2022-10-16T14:31:03;3.05;;;1.20;;
44214;SDS011;29884;47.450;19.124;2022-10-16T14:33:53;2.13;;;1.15;;
44214;SDS011;29884;47.450;19.124;2022-10-16T14:36:19;3.50;;;1.40;;
44214;SDS011;29884;47.450;19.124;2022-10-16T14:38:57;4.13;;;1.55;;
44214;SDS011;29884;47.450;19.124;2022-10-16T14:41:32;4.50;;;1.40;;
44214;SDS011;29884;47.450;19.124;2022-10-16T14:44:11;2.10;;;1.30;;
44214;SDS011;29884;47.450;19.124;2022-10-16T14:46:39;3.00;;;1.23;;
44214;SDS011;29884;47.450;19.124;2022-10-16T14:51:36;4.57;;;1.40;;
44214;SDS011;29884;47.450;19.124;2022-10-16T14:54:09;3.83;;;1.30;;
44214;SDS011;29884;47.450;19.124;2022-10-16T14:59:33;3.05;;;1.33;;
44214;SDS011;29884;47.450;19.124;2022-10-16T15:02:08;2.70;;;1.30;;
44214;SDS011;29884;47.450;19.124;2022-10-16T15:04:40;4.25;;;1.55;;
44214;SDS011;29884;47.450;19.124;2022-10-16T15:07:07;1.95;;;1.30;;
44214;SDS011;29884;47.450;19.124;2022-10-16T15:09:33;4.45;;;1.40;;
44214;SDS011;29884;47.450;19.124;2022-10-16T15:11:58;3.35;;;1.58;;
44214;SDS011;29884;47.450;19.124;2022-10-16T15:14:24;5.25;;;1.60;;
44214;SDS011;29884;47.450;19.124;2022-10-16T15:16:50;3.28;;;1.50;;
44214;SDS011;29884;47.450;19.124;2022-10-16T15:19:16;9.82;;;1.25;;
44214;SDS011;29884;47.450;19.124;2022-10-16T15:21:41;2.65;;;1.40;;
44214;SDS011;29884;47.450;19.124;2022-10-16T15:24:09;2.55;;;1.45;;
44214;SDS011;29884;47.450;19.124;2022-10-16T15:26:37;3.60;;;1.48;;
44214;SDS011;29884;47.450;19.124;2022-10-16T15:29:03;2.65;;;1.60;;
44214;SDS011;29884;47.450;19.124;2022-10-16T15:31:29;3.05;;;1.67;;
44214;SDS011;29884;47.450;19.124;2022-10-16T15:33:55;3.65;;;1.77;;
44214;SDS011;29884;47.450;19.124;2022-10-16T15:36:30;3.53;;;1.65;;
44214;SDS011;29884;47.450;19.124;2022-10-16T15:39:02;6.13;;;1.75;;
44214;SDS011;29884;47.450;19.124;2022-10-16T15:41:29;5.95;;;1.55;;
44214;SDS011;29884;47.450;19.124;2022-10-16T15:43:54;2.40;;;1.30;;
44214;SDS011;29884;47.450;19.124;2022-10-16T15:46:22;3.13;;;1.80;;
44214;SDS011;29884;47.450;19.124;2022-10-16T15:48:49;2.95;;;1.48;;
44214;SDS011;29884;47.450;19.124;2022-10-16T15:51:16;4.28;;;1.80;;
44214;SDS011;29884;47.450;19.124;2022-10-16T15:53:43;5.78;;;1.90;;
44214;SDS011;29884;47.450;19.124;2022-10-16T15:56:11;10.95;;;1.88;;
44214;SDS011;29884;47.450;19.124;2022-10-16T15:58:40;7.07;;;2.05;;
44214;SDS011;29884;47.450;19.124;2022-10-16T16:01:07;5.32;;;1.92;;
44214;SDS011;29884;47.450;19.124;2022-10-16T16:03:34;2.42;;;1.85;;
44214;SDS011;29884;47.450;19.124;2022-10-16T16:06:05;13.25;;;2.97;;
44214;SDS011;29884;47.450;19.124;2022-10-16T16:08:32;9.98;;;4.13;;
44214;SDS011;29884;47.450;19.124;2022-10-16T16:11:01;13.70;;;4.03;;
44214;SDS011;29884;47.450;19.124;2022-10-16T16:13:32;11.70;;;3.33;;
44214;SDS011;29884;47.450;19.124;2022-10-16T16:15:58;11.32;;;3.55;;
44214;SDS011;29884;47.450;19.124;2022-10-16T16:18:24;14.20;;;4.10;;
44214;SDS011;29884;47.450;19.124;2022-10-16T16:20:51;9.68;;;4.13;;
44214;SDS011;29884;47.450;19.124;2022-10-16T16:23:17;6.22;;;4.15;;
44214;SDS011;29884;47.450;19.124;2022-10-16T16:25:44;16.95;;;5.60;;
44214;SDS011;29884;47.450;19.124;2022-10-16T16:28:10;11.60;;;5.30;;
44214;SDS011;29884;47.450;19.124;2022-10-16T16:30:39;9.70;;;6.47;;
44214;SDS011;29884;47.450;19.124;2022-10-16T16:33:06;12.80;;;6.25;;
44214;SDS011;29884;47.450;19.124;2022-10-16T16:35:31;11.93;;;5.90;;
44214;SDS011;29884;47.450;19.124;2022-10-16T16:37:57;9.65;;;6.00;;
44214;SDS011;29884;47.450;19.124;2022-10-16T16:40:23;12.60;;;5.72;;
44214;SDS011;29884;47.450;19.124;2022-10-16T16:42:48;11.40;;;6.82;;
44214;SDS011;29884;47.450;19.124;2022-10-16T16:45:14;10.05;;;6.10;;
44214;SDS011;29884;47.450;19.124;2022-10-16T16:47:40;11.10;;;5.88;;
44214;SDS011;29884;47.450;19.124;2022-10-16T16:50:06;13.18;;;6.20;;
44214;SDS011;29884;47.450;19.124;2022-10-16T16:52:32;13.27;;;6.10;;
44214;SDS011;29884;47.450;19.124;2022-10-16T16:54:59;16.50;;;6.45;;
44214;SDS011;29884;47.450;19.124;2022-10-16T16:57:26;9.73;;;6.55;;
44214;SDS011;29884;47.450;19.124;2022-10-16T16:59:51;9.68;;;6.10;;
44214;SDS011;29884;47.450;19.124;2022-10-16T17:02:17;12.73;;;6.97;;
44214;SDS011;29884;47.450;19.124;2022-10-16T17:04:43;13.88;;;7.00;;